Flight Track Log - Related Links

Times and Time Zones

All times are in EDT time to prevent confusion due to time zone crossing. See the SWA3939 flight status page for this flight to view local times or setup timezone preferences in your user account.

Time Position Orientation Groundspeed Altitude Reporting Facility
EDT Latitude Longitude Course Direction KTS MPH feet Rate Location/Type
Sat 08:44:32 PM 45.6050 -122.6464 300° West 175 201 1,600  Level Seattle Center
Sat 08:45:02 PM 45.6242 -122.6936 300° West 224 258 3,200 3,049 Climbing Seattle Center
Sat 08:45:33 PM 45.6414 -122.7306 304° West 202 232 4,700 3,382 Climbing Seattle Center
Sat 08:45:57 PM 45.6536 -122.7650 297° West 229 264 6,300 3,541 Climbing Seattle Center
Sat 08:46:34 PM 45.6703 -122.8169 295° West 239 275 8,300 2,784 Climbing Seattle Center
Sat 08:47:34 PM 45.6167 -122.8447 200° South 268 308 10,800 2,628 Climbing Seattle Center
Sat 08:48:35 PM 45.5664 -122.7358 123° Southeast 334 384 13,600 3,098 Climbing Seattle Center
Sat 08:49:36 PM 45.5175 -122.6161 120° Southeast 348 400 17,100 3,000 Climbing Seattle Center
Sat 08:50:37 PM 45.4661 -122.4900 120° Southeast 362 417 19,700 2,557 Climbing Seattle Center
Sat 08:51:38 PM 45.4117 -122.3561 120° Southeast 383 441 22,300 2,430 Climbing Seattle Center
Sat 08:52:38 PM 45.3544 -122.2158 120° Southeast 403 464 24,600 2,231 Climbing Seattle Center
Sat 08:53:39 PM 45.3058 -122.0617 114° Southeast 427 491 26,800 2,164 Climbing Seattle Center
Sat 08:54:40 PM 45.2611 -121.8881 110° East 437 503 29,000 1,918 Climbing Seattle Center
Sat 08:55:41 PM 45.2169 -121.7225 111° Southeast 447 514 30,700 1,770 Climbing Seattle Center
Sat 08:56:42 PM 45.1708 -121.5531 111° Southeast 461 531 32,600 1,918 Climbing Seattle Center
Sat 08:57:43 PM 45.1256 -121.3847 111° Southeast 458 527 34,600 1,736 Climbing Seattle Center
Sat 08:58:43 PM 45.0800 -121.2200 111° Southeast 453 521 36,100 1,190 Climbing Seattle Center
Sat 08:59:44 PM 45.0344 -121.0550 111° Southeast 453 521 37,000 443 Climbing Seattle Center
Sat 09:00:45 PM 44.9892 -120.8908 111° Southeast 450 518 37,000  Level Seattle Center
Sat 09:01:46 PM 44.9433 -120.7272 112° Southeast 451 519 37,000  Level Seattle Center
Sat 09:02:47 PM 44.8969 -120.5628 112° Southeast 453 521 37,000  Level Seattle Center
Sat 09:03:48 PM 44.8511 -120.4008 112° Southeast 451 519 37,000  Level Seattle Center
Sat 09:04:48 PM 44.7964 -120.2072 112° Southeast 449 517 37,000  Level Seattle Center
Sat 09:05:49 PM 44.7506 -120.0481 112° Southeast 449 517 37,000 492 Level Seattle Center
Sat 09:06:50 PM 44.7044 -119.8875 112° Southeast 451 519 38,000 934 Climbing Seattle Center
Sat 09:07:51 PM 44.6575 -119.7239 112° Southeast 455 524 38,900 492 Climbing Seattle Center
Sat 09:08:52 PM 44.6108 -119.5625 112° Southeast 452 520 39,000 49 Climbing Seattle Center
Sat 09:09:53 PM 44.5633 -119.3997 112° Southeast 454 522 39,000  Level Seattle Center
Sat 09:10:54 PM 44.5142 -119.2386 113° Southeast 453 521 39,000  Level Seattle Center
Sat 09:11:54 PM 44.4650 -119.0753 113° Southeast 455 524 39,000  Level Seattle Center
Sat 09:12:55 PM 44.4161 -118.9131 113° Southeast 454 522 39,000  Level Seattle Center
Sat 09:14:05 PM 44.3567 -118.7175 113° Southeast 457 526 39,000  Level Salt Lake Center
Sat 09:14:57 PM 44.3006 -118.5611 117° Southeast 454 522 39,000  Level Seattle Center
Sat 09:15:58 PM 44.2425 -118.4042 117° Southeast 455 524 39,000  Level Seattle Center
Sat 09:16:59 PM 44.1858 -118.2467 117° Southeast 458 527 39,000  Level Seattle Center
Sat 09:18:00 PM 44.1222 -118.0764 117° Southeast 462 532 39,000  Level Seattle Center
Sat 09:19:00 PM 44.0667 -117.9236 117° Southeast 464 534 39,000  Level Seattle Center
Sat 09:20:01 PM 44.0100 -117.7719 117° Southeast 462 532 39,000  Level Seattle Center
Sat 09:21:02 PM 43.9464 -117.6000 117° Southeast 453 521 39,000  Level Seattle Center
Sat 09:22:14 PM 43.8772 -117.4242 119° Southeast 456 525 39,000  Level Salt Lake Center
Sat 09:23:15 PM 43.8219 -117.2767 117° Southeast 456 525 39,000  Level Salt Lake Center
Sat 09:24:16 PM 43.7575 -117.1039 117° Southeast 456 525 39,000  Level Salt Lake Center
Sat 09:25:17 PM 43.7006 -116.9558 118° Southeast 456 525 39,000  Level Salt Lake Center
Sat 09:26:18 PM 43.6344 -116.7831 118° Southeast 457 526 39,000  Level Salt Lake Center
Sat 09:27:20 PM 43.5781 -116.6333 117° Southeast 463 533 39,000  Level Salt Lake Center
Sat 09:28:21 PM 43.5200 -116.4844 118° Southeast 463 533 39,000  Level Salt Lake Center
Sat 09:29:22 PM 43.4514 -116.3094 118° Southeast 466 536 39,000  Level Salt Lake Center
Sat 09:30:23 PM 43.3931 -116.1611 118° Southeast 462 532 39,000  Level Salt Lake Center
Sat 09:31:24 PM 43.3247 -115.9864 118° Southeast 464 534 39,000  Level Salt Lake Center
Sat 09:32:26 PM 43.2661 -115.8381 118° Southeast 461 531 39,000  Level Salt Lake Center
Sat 09:33:27 PM 43.2067 -115.6878 118° Southeast 466 536 39,000  Level Salt Lake Center
Sat 09:34:28 PM 43.1367 -115.5150 119° Southeast 466 536 39,000  Level Salt Lake Center
Sat 09:35:29 PM 43.0778 -115.3675 119° Southeast 462 532 39,000  Level Salt Lake Center
Sat 09:36:31 PM 43.0061 -115.1936 119° Southeast 471 542 39,000  Level Salt Lake Center
Sat 09:37:32 PM 42.9461 -115.0450 119° Southeast 467 537 39,000  Level Salt Lake Center
Sat 09:38:33 PM 42.8856 -114.8958 119° Southeast 470 541 39,000  Level Salt Lake Center
Sat 09:39:35 PM 42.8144 -114.7233 119° Southeast 469 540 39,000  Level Salt Lake Center
Sat 09:40:36 PM 42.7494 -114.5653 119° Southeast 469 540 39,000  Level Salt Lake Center
Sat 09:41:37 PM 42.6933 -114.4297 119° Southeast 465 535 39,000  Level Salt Lake Center
Sat 09:42:39 PM 42.6172 -114.2469 119° Southeast 464 534 39,000  Level Salt Lake Center
Sat 09:43:40 PM 42.5525 -114.0978 120° Southeast 461 531 39,000  Level Salt Lake Center
Sat 09:44:41 PM 42.4892 -113.9461 119° Southeast 463 533 39,000  Level Salt Lake Center
Sat 09:45:43 PM 42.4258 -113.7961 120° Southeast 461 531 39,000  Level Salt Lake Center
Sat 09:46:44 PM 42.3622 -113.6483 120° Southeast 457 526 39,000 -443 Level Salt Lake Center
Sat 09:47:45 PM 42.2967 -113.4969 120° Southeast 463 533 38,100 -1,707 Descending Salt Lake Center
Sat 09:48:47 PM 42.2097 -113.3719 133° Southeast 458 527 35,500 -2,732 Descending Salt Lake Center
Sat 09:49:48 PM 42.1208 -113.2544 136° Southeast 452 520 32,500 -2,705 Descending Salt Lake Center
Sat 09:50:49 PM 42.0306 -113.1342 135° Southeast 456 525 30,000 -2,293 Descending Salt Lake Center
Sat 09:51:51 PM 41.9422 -113.0194 136° Southeast 445 512 27,800 -2,341 Descending Salt Lake Center
Sat 09:52:52 PM 41.8411 -112.8889 136° Southeast 424 488 25,200 -2,311 Descending Salt Lake Center
Sat 09:53:53 PM 41.7614 -112.7842 136° Southeast 406 467 23,100 -1,902 Descending Salt Lake Center
Sat 09:54:55 PM 41.6825 -112.6836 136° Southeast 397 457 21,300 -2,044 Descending Salt Lake Center
Sat 09:55:24 PM 41.6475 -112.6275 130° Southeast 385 443 20,000 -2,164 Descending Salt Lake Center
Sat 09:55:56 PM 41.6072 -112.5864 143° Southeast 379 436 19,100 -1,881 Descending Salt Lake Center
Sat 09:56:31 PM 41.5658 -112.5258 132° Southeast 375 432 17,900 -1,967 Descending Salt Lake Center
Sat 09:56:57 PM 41.5317 -112.4914 143° Southeast 375 432 17,100 -900 Descending Salt Lake Center
Sat 09:57:31 PM 41.4778 -112.4353 142° Southeast 373 429 17,000 -97 Descending Salt Lake Center
Sat 09:57:59 PM 41.4458 -112.4169 157° South 371 427 17,000 -590 Level Salt Lake Center
Sat 09:58:32 PM 41.3861 -112.3719 151° Southeast 370 426 16,400 -1,180 Descending Salt Lake Center
Sat 09:59:00 PM 41.3553 -112.3533 156° South 367 422 15,800 -2,000 Descending Salt Lake Center
Sat 09:59:32 PM 41.2989 -112.3100 150° Southeast 360 414 14,400 -2,032 Descending Salt Lake Center
Sat 10:00:02 PM 41.2686 -112.2908 155° Southeast 357 411 13,700 -1,377 Descending Salt Lake Center
Sat 10:00:33 PM 41.2125 -112.2508 152° Southeast 350 403 13,000 -689 Descending Salt Lake Center
Sat 10:01:03 PM 41.1692 -112.2181 150° Southeast 342 394 13,000  Level Salt Lake Center
Sat 10:01:34 PM 41.1311 -112.1872 149° Southeast 340 391 13,000  Level Salt Lake Center
Sat 10:02:05 PM 41.0889 -112.1550 150° Southeast 338 389 13,000  Level Salt Lake Center
Sat 10:02:34 PM 41.0444 -112.1397 165° South 339 390 13,000 -98 Level Salt Lake Center
Sat 10:03:06 PM 40.9992 -112.1297 171° South 333 383 12,900 -984 Descending Salt Lake Center
Sat 10:03:35 PM 40.9550 -112.1219 172° South 331 381 12,000 -1,839 Descending Salt Lake Center
Sat 10:04:08 PM 40.9100 -112.1108 169° South 328 377 11,000 -1,400 Descending Salt Lake Center
Sat 10:04:35 PM 40.8608 -112.1028 173° South 317 365 10,600 -689 Descending Salt Lake Center
Sat 10:05:09 PM 40.8281 -112.0933 168° South 293 337 10,300 -677 Descending Salt Lake Center
Sat 10:05:37 PM 40.7864 -112.0853 172° South 265 305 9,900 -885 Descending Salt Lake Center
Sat 10:06:10 PM 40.7589 -112.0761 166° South 249 287 9,400 -1,200 Descending Salt Lake Center
Sat 10:06:37 PM 40.7192 -112.0714 175° South 241 277 8,700 -1,355 Descending Salt Lake Center
Sat 10:07:12 PM 40.6814 -112.0592 166° South 235 270 8,000 -1,100 Descending Salt Lake Center
Sat 10:07:37 PM 40.6644 -112.0333 131° Southeast 234 269 7,600 -1,180 Descending Salt Lake Center
Sat 10:08:13 PM 40.6675 -111.9881 85° East 220 253 6,800 -1,279 Descending Salt Lake Center
Sat 10:08:38 PM 40.6836 -111.9672 44° Northeast 205 236 6,300 -1,161 Descending Salt Lake Center
Sat 10:09:15 PM 40.7111 -111.9658 North 176 203 5,600 -1,180 Descending Salt Lake Center
Sat 10:09:39 PM 40.7297 -111.9714 347° North 163 188 5,100 -984 Descending Salt Lake Center
Sat 10:10:16 PM 40.7536 -111.9706 North 154 177 4,600 -551 Descending Salt Lake Center
Sat 10:11:17 PM 40.7939 -111.9742 356° North 147 169 4,200 -393 Descending Salt Lake Center

Login

Don't have an account? Register now (free) for customized features, flight alerts, and more!